createdAt,value
2018-04-07T00:01:30.523Z,5.4
2018-04-07T00:06:57.356Z,5.4
2018-04-07T00:12:24.311Z,5.3
2018-04-07T00:17:51.307Z,5.3
2018-04-07T00:23:18.295Z,5.2
2018-04-07T00:28:46.278Z,5.2
2018-04-07T00:34:13.324Z,5.2
2018-04-07T00:39:41.445Z,5.2
2018-04-07T00:45:08.304Z,5.2
2018-04-07T00:50:36.308Z,5.2
2018-04-07T00:56:04.278Z,5.1
2018-04-07T01:01:32.260Z,5.1
2018-04-07T01:07:00.267Z,5
2018-04-07T01:12:28.301Z,5.1
2018-04-07T01:17:56.276Z,5.1
2018-04-07T01:23:23.232Z,5.1
2018-04-07T01:28:50.199Z,5.1
2018-04-07T01:34:17.249Z,5.2
2018-04-07T01:45:12.212Z,5.3
2018-04-07T01:50:39.267Z,5.4
2018-04-07T01:56:07.312Z,5.4
2018-04-07T02:01:34.361Z,5.4
2018-04-07T02:07:01.236Z,5.5
2018-04-07T02:12:28.241Z,5.5
2018-04-07T02:17:55.548Z,5.4
2018-04-07T02:23:23.346Z,5.4
2018-04-07T02:28:50.311Z,5.4
2018-04-07T02:34:17.365Z,5.4
2018-04-07T02:39:45.515Z,5.3
2018-04-07T02:45:12.322Z,5.3
2018-04-07T02:50:39.357Z,5.3
2018-04-07T02:56:06.347Z,5.3
2018-04-07T03:01:34.373Z,5.3
2018-04-07T03:07:01.354Z,5.3
2018-04-07T03:12:29.352Z,5.3
2018-04-07T03:17:57.380Z,5.3
2018-04-07T03:23:24.340Z,5.2
2018-04-07T03:28:52.338Z,5.2
2018-04-07T03:34:19.332Z,5.2
2018-04-07T03:39:47.319Z,5.2
2018-04-07T03:45:15.309Z,5.2
2018-04-07T03:50:43.392Z,5.2
2018-04-07T03:56:11.329Z,5.2
2018-04-07T04:01:39.297Z,5.2
2018-04-07T04:07:06.271Z,5.2
2018-04-07T04:12:33.255Z,5.2
2018-04-07T04:18:01.285Z,5.2
2018-04-07T04:23:29.249Z,5.1
2018-04-07T04:28:56.226Z,5.1
2018-04-07T04:34:23.243Z,5.1
2018-04-07T04:39:50.217Z,5.1
2018-04-07T04:45:18.361Z,5.1
2018-04-07T04:50:45.176Z,5.1
2018-04-07T04:56:13.281Z,5.2
2018-04-07T05:01:41.206Z,5.2
2018-04-07T05:07:09.202Z,5.2
2018-04-07T05:12:37.246Z,5.2
2018-04-07T05:18:04.258Z,5.3
2018-04-07T05:23:31.163Z,5.3
2018-04-07T05:28:59.162Z,5.3
2018-04-07T05:34:26.161Z,5.4
2018-04-07T05:39:54.260Z,5.4
2018-04-07T05:45:21.257Z,5.5
2018-04-07T05:50:49.252Z,5.6
2018-04-07T05:56:16.291Z,5.6
2018-04-07T06:01:44.502Z,5.7
2018-04-07T06:07:11.333Z,5.8
2018-04-07T06:12:38.347Z,5.9
2018-04-07T06:18:06.416Z,6.1
2018-04-07T06:23:34.523Z,6.2
2018-04-07T06:29:02.580Z,6.4
2018-04-07T06:34:30.685Z,6.6
2018-04-07T06:39:58.815Z,6.8
2018-04-07T06:45:26.967Z,6.9
2018-04-07T06:50:54.125Z,7
2018-04-07T06:56:22.247Z,7
2018-04-07T07:01:50.418Z,7.1
2018-04-07T07:07:17.541Z,7.2
2018-04-07T07:12:44.662Z,7.3
2018-04-07T07:18:12.863Z,7.4
2018-04-07T07:23:41.119Z,7.6
2018-04-07T07:29:08.270Z,7.7
2018-04-07T07:34:36.486Z,7.9
2018-04-07T07:40:03.731Z,8.1
2018-04-07T07:45:30.955Z,8.3
2018-04-07T07:50:59.291Z,8.5
2018-04-07T07:56:27.500Z,8.7
2018-04-07T08:01:54.780Z,8.9
2018-04-07T08:07:22.100Z,9.1
2018-04-07T08:12:49.435Z,9.2
2018-04-07T08:18:16.774Z,9.4
2018-04-07T08:23:44.137Z,9.5
2018-04-07T08:29:12.539Z,9.8
2018-04-07T08:34:40.937Z,10.2
2018-04-07T08:40:08.390Z,10.4
2018-04-07T08:45:36.850Z,10.7
2018-04-07T08:51:05.377Z,10.9
2018-04-07T09:02:01.567Z,11
2018-04-07T09:07:28.868Z,11.2
2018-04-07T09:12:56.438Z,11.3
2018-04-07T09:18:24.929Z,11.5
2018-04-07T09:23:52.479Z,11.7
2018-04-07T09:29:21.080Z,11.9
2018-04-07T09:34:49.720Z,12.1
2018-04-07T09:40:17.365Z,12.3
2018-04-07T09:45:44.949Z,12.4
2018-04-07T09:51:12.616Z,12.7
2018-04-07T09:56:40.285Z,12.9
2018-04-07T10:02:09.000Z,13
2018-04-07T10:07:36.673Z,13.2
2018-04-07T10:13:04.470Z,13.3
2018-04-07T10:18:33.156Z,13.4
2018-04-07T10:24:02.020Z,13.6
2018-04-07T10:29:30.689Z,13.7
2018-04-07T10:34:58.481Z,13.8
2018-04-07T10:40:26.302Z,14.1
2018-04-07T10:45:54.097Z,14.2
2018-04-07T10:51:23.082Z,14.4
2018-04-07T10:56:51.817Z,14.4
2018-04-07T11:02:20.669Z,14.6
2018-04-07T11:07:48.513Z,14.7
2018-04-07T11:13:16.417Z,14.8
2018-04-07T11:18:45.312Z,14.9
2018-04-07T11:24:13.281Z,15.1
2018-04-07T11:29:41.141Z,15.4
2018-04-07T11:35:09.193Z,15.6
2018-04-07T11:40:37.188Z,15.7
2018-04-07T11:46:06.199Z,15.7
2018-04-07T11:51:34.219Z,16
2018-04-07T11:57:02.204Z,16.3
2018-04-07T12:02:30.633Z,16.6
2018-04-07T12:07:59.383Z,17.3
2018-04-07T12:13:27.626Z,18
2018-04-07T12:18:55.921Z,18.7
2018-04-07T12:24:25.262Z,19.2
2018-04-07T12:29:54.672Z,19.5
2018-04-07T12:35:24.306Z,19.7
2018-04-07T12:40:53.586Z,20
2018-04-07T12:46:23.071Z,20.6
2018-04-07T12:51:52.681Z,21
2018-04-07T12:57:21.305Z,21.1
2018-04-07T13:02:49.930Z,21
2018-04-07T13:08:18.697Z,21
2018-04-07T13:13:48.482Z,21.3
2018-04-07T13:19:16.850Z,21.5
2018-04-07T13:24:45.588Z,22.1
2018-04-07T13:30:15.351Z,22.3
2018-04-07T13:35:45.129Z,22.6
2018-04-07T13:41:13.997Z,23.2
2018-04-07T13:46:43.912Z,23.2
2018-04-07T13:52:13.823Z,23.4
2018-04-07T13:57:43.754Z,23.6
2018-04-07T14:03:13.757Z,23.8
2018-04-07T14:08:42.769Z,23.8
2018-04-07T14:14:11.703Z,24.1
2018-04-07T14:19:41.833Z,24
2018-04-07T14:25:10.774Z,23.8
2018-04-07T14:30:40.796Z,23.6
2018-04-07T14:36:10.759Z,23.8
2018-04-07T14:41:40.873Z,24
2018-04-07T14:47:10.785Z,23.6
2018-04-07T14:52:40.769Z,23.2
2018-04-07T14:58:10.642Z,22.4
2018-04-07T15:03:39.463Z,21.9
2018-04-07T15:09:09.187Z,21.5
2018-04-07T15:14:38.898Z,21.1
2018-04-07T15:20:07.490Z,20.6
2018-04-07T15:25:37.114Z,20.4
2018-04-07T15:31:05.696Z,20
2018-04-07T15:36:35.175Z,19.6
2018-04-07T15:47:33.100Z,19.2
2018-04-07T15:53:02.504Z,18.9
2018-04-07T15:58:31.845Z,18.7
2018-04-07T16:04:01.324Z,18.6
2018-04-07T16:09:30.588Z,19.2
2018-04-07T16:20:29.555Z,19.8
2018-04-07T16:25:58.045Z,19.3
2018-04-07T16:31:26.443Z,19
2018-04-07T16:36:55.840Z,18.7
2018-04-07T16:42:25.190Z,18.3
2018-04-07T16:47:53.442Z,17.8
2018-04-07T16:53:22.674Z,17.3
2018-04-07T16:58:51.868Z,17.1
2018-04-07T17:04:21.038Z,16.8
2018-04-07T17:09:49.237Z,16.5
2018-04-07T17:15:17.302Z,16.4
2018-04-07T17:20:45.351Z,16.1
2018-04-07T17:26:14.358Z,15.8
2018-04-07T17:31:42.382Z,15.6
2018-04-07T17:37:11.359Z,15.4
2018-04-07T17:42:40.336Z,15.1
2018-04-07T17:48:09.343Z,14.9
2018-04-07T17:53:37.250Z,14.7
2018-04-07T17:59:05.068Z,14.4
2018-04-07T18:04:33.096Z,14.3
2018-04-07T18:10:01.862Z,14.1
2018-04-07T18:15:29.599Z,14
2018-04-07T18:20:57.479Z,13.8
2018-04-07T18:26:26.250Z,13.6
2018-04-07T18:31:54.028Z,13.5
2018-04-07T18:37:21.796Z,13.3
2018-04-07T18:42:49.618Z,13.2
2018-04-07T18:48:17.273Z,13.1
2018-04-07T18:53:46.195Z,13
2018-04-07T18:59:13.767Z,13
2018-04-07T19:04:41.504Z,12.9
2018-04-07T19:10:09.235Z,12.8
2018-04-07T19:15:37.916Z,12.7
2018-04-07T19:21:05.557Z,12.6
2018-04-07T19:26:34.255Z,12.5
2018-04-07T19:32:02.896Z,12.3
2018-04-07T19:37:30.559Z,12.3
2018-04-07T19:42:59.181Z,12.1
2018-04-07T19:48:27.913Z,12.1
2018-04-07T19:53:55.653Z,11.9
2018-04-07T19:59:24.116Z,11.8
2018-04-07T20:04:51.689Z,11.6
2018-04-07T20:10:20.277Z,11.6
2018-04-07T20:15:47.839Z,11.6
2018-04-07T20:21:15.387Z,11.5
2018-04-07T20:26:43.159Z,11.6
2018-04-07T20:32:10.570Z,11.6
2018-04-07T20:37:38.156Z,11.6
2018-04-07T20:43:05.737Z,11.5
2018-04-07T20:48:33.311Z,11.5
2018-04-07T20:54:01.894Z,11.4
2018-04-07T20:59:29.424Z,11.3
2018-04-07T21:04:56.970Z,11.2
2018-04-07T21:10:25.508Z,11.2
2018-04-07T21:15:53.039Z,11.1
2018-04-07T21:21:21.564Z,11
2018-04-07T21:26:49.256Z,11
2018-04-07T21:32:16.628Z,10.9
2018-04-07T21:37:44.121Z,10.8
2018-04-07T21:43:11.634Z,10.8
2018-04-07T21:48:40.114Z,10.7
2018-04-07T21:54:08.624Z,10.7
2018-04-07T21:59:36.142Z,10.7
2018-04-07T22:05:03.618Z,10.7
2018-04-07T22:10:31.097Z,10.6
2018-04-07T22:15:58.605Z,10.6
2018-04-07T22:21:27.092Z,10.5
2018-04-07T22:26:55.574Z,10.4
2018-04-07T22:32:24.038Z,10.4
2018-04-07T22:37:51.497Z,10.4
2018-04-07T22:43:19.010Z,10.4
2018-04-07T22:48:47.438Z,10.3
2018-04-07T22:54:15.860Z,10.2
2018-04-07T22:59:44.324Z,10.1
2018-04-07T23:05:12.785Z,10
2018-04-07T23:10:41.293Z,10
2018-04-07T23:16:08.660Z,10
2018-04-07T23:21:36.062Z,9.9
2018-04-07T23:27:04.679Z,9.9
2018-04-07T23:32:32.177Z,9.9
2018-04-07T23:38:00.393Z,9.9
2018-04-07T23:43:27.784Z,9.9
2018-04-07T23:48:55.267Z,9.9
2018-04-07T23:54:22.613Z,9.9
